Time;durP1;ratioP1;P1;durP2;ratioP2;P2;SDS_P1;SDS_P2;PMS_P1;PMS_P2;Temp;Humidity;BMP_temperature;BMP_pressure;BME280_temperature;BME280_humidity;BME280_pressure;Samples;Min_cycle;Max_cycle;Signal;HPM_P1;HPM_P2
2021/05/19 00:01:13;;;;;;;;;;;7.10;99.90;;;;;;5085934;28;20059;-58
2021/05/19 00:03:39;;;;;;;10.95;6.00;;;7.10;99.90;;;;;;5086346;28;20267;-56
2021/05/19 00:06:04;;;;;;;9.55;5.40;;;7.20;99.90;;;;;;5084863;28;20094;-58
2021/05/19 00:08:30;;;;;;;;;;;7.20;99.90;;;;;;5086224;28;20503;-58
2021/05/19 00:10:55;;;;;;;6.18;5.18;;;7.10;99.90;;;;;;5085796;28;19925;-57
2021/05/19 00:13:21;;;;;;;;;;;7.10;99.90;;;;;;5086449;28;20064;-58
2021/05/19 00:15:46;;;;;;;6.82;5.07;;;7.10;99.90;;;;;;5085543;28;19939;-58
2021/05/19 00:18:12;;;;;;;;;;;7.10;99.90;;;;;;5075133;28;20044;-58
2021/05/19 00:20:38;;;;;;;10.27;6.18;;;7.10;99.90;;;;;;5072349;28;19916;-58
2021/05/19 00:23:03;;;;;;;;;;;7.10;99.90;;;;;;5072823;28;20041;-58
2021/05/19 00:25:29;;;;;;;9.20;5.93;;;7.00;99.90;;;;;;5065068;28;19921;-55
2021/05/19 00:27:55;;;;;;;11.48;5.10;;;7.10;99.90;;;;;;5074695;28;20036;-57
2021/05/19 00:30:21;;;;;;;11.90;5.55;;;7.00;99.90;;;;;;5070739;28;20505;-57
2021/05/19 00:32:47;;;;;;;6.38;4.13;;;7.10;99.90;;;;;;5071974;28;20037;-58
2021/05/19 00:35:13;;;;;;;;;;;7.00;99.90;;;;;;5072055;28;20052;-58
2021/05/19 00:37:39;;;;;;;6.40;3.42;;;7.10;99.90;;;;;;5072326;28;19917;-58
2021/05/19 00:40:05;;;;;;;;;;;7.00;99.90;;;;;;5072579;28;20127;-59
2021/05/19 00:42:30;;;;;;;8.18;3.17;;;7.00;99.90;;;;;;5071695;28;20526;-58
2021/05/19 00:44:56;;;;;;;;;;;6.90;99.90;;;;;;5090023;28;20051;-58
2021/05/19 00:47:42;;;;;;;4.22;2.30;;;6.90;99.90;;;;;;5091736;28;19924;-58
2021/05/19 00:50:14;;;;;;;7.63;3.17;;;6.80;99.90;;;;;;5091810;28;20040;-59
2021/05/19 00:52:40;;;;;;;5.90;2.80;;;6.70;99.90;;;;;;5091967;28;20040;-58
2021/05/19 00:55:06;;;;;;;;;;;6.70;99.90;;;;;;5090955;28;20437;-59
2021/05/19 00:57:33;;;;;;;6.13;2.17;;;6.60;99.90;;;;;;5080096;28;19971;-58
2021/05/19 00:59:59;;;;;;;5.75;1.80;;;6.60;99.90;;;;;;5071155;28;20047;-58
2021/05/19 01:02:25;;;;;;;2.97;1.73;;;6.50;99.90;;;;;;5071055;28;20122;-57
2021/05/19 01:04:51;;;;;;;;;;;6.50;99.90;;;;;;5071809;28;20155;-59
2021/05/19 01:07:25;;;;;;;3.00;1.75;;;6.50;99.90;;;;;;5071189;28;19994;-56
2021/05/19 01:09:51;;;;;;;11.02;3.05;;;6.40;99.90;;;;;;5071135;28;20049;-57
2021/05/19 01:12:18;;;;;;;;;;;6.40;99.90;;;;;;5059646;28;20139;-58
2021/05/19 01:14:45;;;;;;;4.18;2.70;;;6.40;99.90;;;;;;5066800;28;19966;-56
2021/05/19 01:17:11;;;;;;;6.95;3.10;;;6.40;99.90;;;;;;5070856;28;20037;-58
2021/05/19 01:19:44;;;;;;;;;;;6.40;99.90;;;;;;5071406;28;20036;-57
2021/05/19 01:22:21;;;;;;;3.45;2.60;;;6.40;99.90;;;;;;5071335;28;19924;-57
2021/05/19 01:24:49;;;;;;;4.93;3.05;;;6.50;99.90;;;;;;5070760;28;20037;-57
2021/05/19 01:27:14;;;;;;;10.40;3.50;;;6.40;99.90;;;;;;5080114;28;20040;-58
2021/05/19 01:29:40;;;;;;;;;;;6.40;99.90;;;;;;5084060;28;20097;-57
2021/05/19 01:32:05;;;;;;;7.65;3.28;;;6.40;99.90;;;;;;5069895;28;19998;-55
2021/05/19 01:34:31;;;;;;;;;;;6.40;99.90;;;;;;5070932;28;20028;-57
2021/05/19 01:36:56;;;;;;;5.78;3.75;;;6.30;99.90;;;;;;5070704;28;20003;-56
2021/05/19 01:39:22;;;;;;;;;;;6.30;99.90;;;;;;5071730;28;20040;-58
2021/05/19 01:41:50;;;;;;;11.02;5.20;;;6.20;99.90;;;;;;5070667;28;19975;-58
2021/05/19 01:44:18;;;;;;;13.38;6.75;;;6.20;99.90;;;;;;5070299;28;20076;-57
2021/05/19 01:46:44;;;;;;;14.15;7.20;;;6.10;99.90;;;;;;5070510;28;20082;-58
2021/05/19 01:49:11;;;;;;;14.65;7.50;;;6.10;99.90;;;;;;5070817;28;20045;-58
2021/05/19 01:51:38;;;;;;;16.40;8.60;;;6.00;99.90;;;;;;5070816;28;20041;-58
2021/05/19 01:54:05;;;;;;;16.60;9.27;;;6.00;99.90;;;;;;5070616;28;20136;-59
2021/05/19 01:56:31;;;;;;;15.60;9.50;;;6.00;99.90;;;;;;5071194;28;20377;-58
2021/05/19 01:58:57;;;;;;;;;;;6.00;99.90;;;;;;5070543;28;20097;-59
2021/05/19 02:01:23;;;;;;;19.52;10.57;;;6.00;99.90;;;;;;5069460;28;19916;-56
2021/05/19 02:03:49;;;;;;;17.98;9.35;;;6.00;99.90;;;;;;5071004;28;20044;-57
2021/05/19 02:06:15;;;;;;;;;;;5.90;99.90;;;;;;5070630;28;20136;-57
2021/05/19 02:08:40;;;;;;;17.55;10.10;;;5.90;99.90;;;;;;5070012;28;19940;-58
2021/05/19 02:11:06;;;;;;;;;;;5.90;99.90;;;;;;5070277;28;20072;-59
2021/05/19 02:13:31;;;;;;;19.48;10.70;;;5.90;99.90;;;;;;5070218;28;20659;-58
2021/05/19 02:15:57;;;;;;;17.02;10.88;;;5.90;99.90;;;;;;5069808;28;20075;-57
2021/05/19 02:18:22;;;;;;;;;;;5.80;99.90;;;;;;5070043;28;20032;-54
2021/05/19 02:20:48;;;;;;;20.83;12.60;;;5.90;99.90;;;;;;5070293;28;19998;-57
2021/05/19 02:23:13;;;;;;;;;;;5.90;99.90;;;;;;5070411;28;20049;-55
2021/05/19 02:25:39;;;;;;;28.13;14.30;;;5.90;99.90;;;;;;5069779;28;19920;-57
2021/05/19 02:28:04;;;;;;;;;;;5.90;99.90;;;;;;5070168;28;20522;-58
2021/05/19 02:30:31;;;;;;;35.35;16.02;;;6.00;99.90;;;;;;5069521;28;19920;-57
2021/05/19 02:32:56;;;;;;;31.85;18.80;;;6.00;99.90;;;;;;5077281;28;20048;-59
2021/05/19 02:35:22;;;;;;;;;;;6.00;99.90;;;;;;5069630;28;20071;-57
2021/05/19 02:37:47;;;;;;;32.92;16.83;;;6.10;99.90;;;;;;5069970;28;19970;-58
2021/05/19 02:40:14;;;;;;;;;;;6.00;99.90;;;;;;5070413;28;20123;-58
2021/05/19 02:42:40;;;;;;;34.58;19.52;;;6.00;99.90;;;;;;5069148;28;20008;-60
2021/05/19 02:45:07;;;;;;;41.83;21.35;;;6.00;99.90;;;;;;5068391;28;20146;-56
2021/05/19 02:47:33;;;;;;;36.42;20.52;;;6.00;99.90;;;;;;5068809;28;20697;-58
2021/05/19 02:49:58;;;;;;;;;;;5.90;99.90;;;;;;5070099;28;20040;-59
2021/05/19 02:52:24;;;;;;;50.15;22.88;;;6.00;99.90;;;;;;5067100;28;20605;-54
2021/05/19 02:54:50;;;;;;;52.58;26.35;;;5.90;99.90;;;;;;5064387;28;20109;-54
2021/05/19 02:57:15;;;;;;;;;;;5.90;99.90;;;;;;5069043;28;20040;-57
2021/05/19 02:59:41;;;;;;;48.83;24.33;;;5.90;99.90;;;;;;5069023;28;20563;-57
2021/05/19 03:02:06;;;;;;;;;;;5.90;99.90;;;;;;5069272;28;20415;-54
2021/05/19 03:04:32;;;;;;;45.63;23.50;;;5.90;99.90;;;;;;5069019;28;19971;-57
2021/05/19 03:06:58;;;;;;;;;;;5.90;99.90;;;;;;5069347;28;20064;-59
2021/05/19 03:09:23;;;;;;;52.22;27.05;;;5.80;99.90;;;;;;5068891;28;19917;-56
2021/05/19 03:11:49;;;;;;;60.92;27.88;;;5.80;99.90;;;;;;5075066;28;20029;-56
2021/05/19 03:14:15;;;;;;;48.05;23.17;;;5.90;99.90;;;;;;5069008;28;20040;-58
2021/05/19 03:16:40;;;;;;;;;;;5.80;99.90;;;;;;5069543;28;20041;-59
2021/05/19 03:19:07;;;;;;;61.45;26.95;;;5.80;99.90;;;;;;5068855;28;20429;-60
2021/05/19 03:21:33;;;;;;;48.42;25.20;;;5.80;99.90;;;;;;5065608;28;20037;-57
2021/05/19 03:23:58;;;;;;;;;;;5.80;99.90;;;;;;5068618;28;20032;-60
2021/05/19 03:26:24;;;;;;;51.42;26.40;;;5.90;99.90;;;;;;5065250;28;20316;-59
2021/05/19 03:28:49;;;;;;;;;;;5.90;99.90;;;;;;5065758;28;20064;-59
2021/05/19 03:31:16;;;;;;;60.72;30.00;;;5.80;99.90;;;;;;5068229;28;19923;-59
2021/05/19 03:33:41;;;;;;;66.95;31.83;;;5.80;99.90;;;;;;5068763;28;20024;-58
2021/05/19 03:36:07;;;;;;;;;;;5.90;99.90;;;;;;5068868;28;20043;-67
2021/05/19 03:38:35;;;;;;;66.45;30.42;;;5.90;99.90;;;;;;5069650;28;19994;-63
2021/05/19 03:41:02;;;;;;;62.45;31.55;;;5.90;99.90;;;;;;5068886;28;20567;-60
2021/05/19 03:43:28;;;;;;;67.53;33.60;;;5.90;99.90;;;;;;5074493;28;20407;-61
2021/05/19 03:45:54;;;;;;;74.10;36.05;;;6.00;99.90;;;;;;5088215;28;20415;-58
2021/05/19 03:48:20;;;;;;;;;;;6.00;99.90;;;;;;5089288;28;20078;-55
2021/05/19 03:50:46;;;;;;;86.38;36.58;;;6.00;99.90;;;;;;5087062;28;19923;-56
2021/05/19 03:53:11;;;;;;;;;;;6.10;99.90;;;;;;5090733;28;20418;-58
2021/05/19 03:55:37;;;;;;;59.97;32.25;;;6.20;99.90;;;;;;5093028;28;19920;-55
2021/05/19 03:58:04;;;;;;;48.33;28.58;;;6.50;99.90;;;;;;5080876;28;20078;-57
2021/05/19 04:00:31;;;;;;;55.00;31.95;;;6.70;99.90;;;;;;5071245;28;20040;-59
2021/05/19 04:02:57;;;;;;;50.15;29.83;;;6.70;99.90;;;;;;5072126;28;20048;-60
2021/05/19 04:05:26;;;;;;;57.45;30.98;;;6.70;99.90;;;;;;5070437;28;20043;-58
2021/05/19 04:07:53;;;;;;;57.90;31.55;;;6.60;99.90;;;;;;5072299;28;20041;-58
2021/05/19 04:10:19;;;;;;;58.50;31.92;;;6.60;99.90;;;;;;5071371;28;20752;-52
2021/05/19 04:12:48;;;;;;;57.30;32.40;;;6.70;99.90;;;;;;5072313;28;20115;-59
2021/05/19 04:15:19;;;;;;;55.88;30.50;;;6.80;99.90;;;;;;5071016;28;20174;-60
2021/05/19 04:17:45;;;;;;;41.20;25.73;;;7.20;99.90;;;;;;5071684;28;20044;-59
2021/05/19 04:20:11;;;;;;;;;;;8.10;99.90;;;;;;5072676;28;20073;-58
2021/05/19 04:22:36;;;;;;;33.58;22.90;;;9.00;99.90;;;;;;5071814;28;19962;-51
2021/05/19 04:25:03;;;;;;;;;;;9.30;99.90;;;;;;5068679;28;20119;-58
2021/05/19 04:27:29;;;;;;;45.10;24.20;;;10.10;99.90;;;;;;5065229;28;20272;-52
2021/05/19 04:29:54;;;;;;;;;;;10.40;99.90;;;;;;5072026;28;20282;-56
2021/05/19 04:32:19;;;;;;;42.83;26.52;;;10.10;99.90;;;;;;5070764;28;19916;-56
2021/05/19 04:34:45;;;;;;;;;;;9.60;99.90;;;;;;5070968;28;20040;-55
2021/05/19 04:37:10;;;;;;;38.97;24.35;;;9.30;99.90;;;;;;5070991;28;19986;-55
2021/05/19 04:39:36;;;;;;;;;;;9.20;99.90;;;;;;5071832;28;20123;-57
2021/05/19 04:42:02;;;;;;;43.95;26.98;;;9.20;99.90;;;;;;5071515;28;20027;-55
2021/05/19 04:44:27;;;;;;;;;;;9.10;99.90;;;;;;5078763;28;20036;-55
2021/05/19 04:46:53;;;;;;;42.65;27.15;;;9.10;99.90;;;;;;5076406;28;19973;-56
2021/05/19 04:49:18;;;;;;;;;;;9.10;99.90;;;;;;5071530;28;20036;-57
2021/05/19 04:51:44;;;;;;;38.20;24.92;;;9.30;99.90;;;;;;5071044;28;19955;-56
2021/05/19 04:54:10;;;;;;;;;;;9.90;99.90;;;;;;5089672;28;20059;-53
2021/05/19 04:56:36;;;;;;;35.25;23.73;;;10.50;99.90;;;;;;5090342;28;20303;-58
2021/05/19 04:59:02;;;;;;;;;;;10.50;99.90;;;;;;5079751;28;20050;-56
2021/05/19 05:01:28;;;;;;;30.40;21.27;;;10.50;99.90;;;;;;5070298;28;19963;-55
2021/05/19 05:03:53;;;;;;;;;;;11.50;99.90;;;;;;5071138;28;20072;-55
2021/05/19 05:06:19;;;;;;;27.85;16.67;;;12.50;99.90;;;;;;5077291;28;19954;-58
2021/05/19 05:08:44;;;;;;;;;;;13.70;99.90;;;;;;5079269;28;20040;-58
2021/05/19 05:11:10;;;;;;;25.73;16.70;;;15.00;97.90;;;;;;5080757;28;20000;-58
2021/05/19 05:13:35;;;;;;;;;;;16.00;95.80;;;;;;5069473;28;20051;-58
2021/05/19 05:16:01;;;;;;;19.63;14.32;;;17.20;93.80;;;;;;5083012;28;19984;-57
2021/05/19 05:18:32;;;;;;;21.25;15.40;;;18.50;92.40;;;;;;5087058;28;20400;-59
2021/05/19 05:20:58;;;;;;;23.90;15.90;;;19.40;89.50;;;;;;5074403;28;20040;-58
2021/05/19 05:23:23;;;;;;;;;;;19.60;84.40;;;;;;5078885;28;20039;-60
2021/05/19 05:25:49;;;;;;;23.92;13.80;;;18.00;89.10;;;;;;5077066;28;20272;-59
2021/05/19 05:28:14;;;;;;;21.25;14.50;;;18.10;90.50;;;;;;5070081;28;20033;-58
2021/05/19 05:30:40;;;;;;;17.80;12.77;;;18.60;90.00;;;;;;5062314;28;20037;-60
2021/05/19 05:33:05;;;;;;;17.35;9.95;;;18.80;86.80;;;;;;5068770;28;20041;-59
2021/05/19 05:35:31;;;;;;;11.77;8.50;;;18.60;84.70;;;;;;5078978;28;20492;-58
2021/05/19 05:37:56;;;;;;;13.48;9.73;;;18.00;87.80;;;;;;5090415;28;20043;-58
2021/05/19 05:40:22;;;;;;;14.60;11.50;;;18.20;88.00;;;;;;5090121;28;20047;-59
2021/05/19 05:42:48;;;;;;;17.50;12.18;;;18.20;88.30;;;;;;5089997;28;20035;-60
2021/05/19 05:45:14;;;;;;;16.13;11.90;;;16.60;87.00;;;;;;5068720;28;20396;-57
2021/05/19 05:47:39;;;;;;;17.73;11.02;;;15.80;92.00;;;;;;5070846;28;20052;-57
2021/05/19 05:50:05;;;;;;;;;;;15.40;93.70;;;;;;5070373;28;20048;-58
2021/05/19 05:52:31;;;;;;;17.10;11.73;;;16.10;93.60;;;;;;5069969;28;19916;-59
2021/05/19 05:54:57;;;;;;;;;;;16.40;90.90;;;;;;5069862;28;20032;-56
2021/05/19 05:57:22;;;;;;;18.10;11.43;;;16.20;90.10;;;;;;5075271;28;19916;-57
2021/05/19 05:59:48;;;;;;;;;;;17.10;88.40;;;;;;5070245;28;20048;-59
2021/05/19 06:02:13;;;;;;;14.20;10.23;;;18.00;82.50;;;;;;4168097;28;10000967;-58
2021/05/19 06:04:39;;;;;;;16.75;10.68;;;18.30;80.70;;;;;;5048040;28;20037;-57
2021/05/19 06:07:05;;;;;;;12.48;9.65;;;18.50;83.40;;;;;;5049791;28;20408;-58
2021/05/19 06:09:30;;;;;;;16.83;10.40;;;18.30;77.20;;;;;;5048190;28;20052;-59
2021/05/19 06:11:56;;;;;;;16.50;10.45;;;18.00;77.50;;;;;;5049535;28;20044;-59
2021/05/19 06:14:22;;;;;;;15.65;10.88;;;17.30;80.30;;;;;;5048495;28;20124;-59
2021/05/19 06:16:47;;;;;;;16.77;11.10;;;16.20;86.30;;;;;;4126605;28;10000145;-57
2021/05/19 06:19:13;;;;;;;18.67;12.00;;;15.60;88.80;;;;;;5007231;28;20152;-60
2021/05/19 06:21:39;;;;;;;16.48;11.60;;;15.10;91.50;;;;;;5007050;28;20663;-55
2021/05/19 06:24:05;;;;;;;16.60;11.32;;;14.90;92.40;;;;;;5007179;28;20675;-59
2021/05/19 06:26:31;;;;;;;19.00;12.10;;;14.40;93.70;;;;;;5002351;28;20038;-58
2021/05/19 06:28:57;;;;;;;;;;;14.30;94.60;;;;;;5021093;28;20611;-58
2021/05/19 06:31:22;;;;;;;17.65;11.98;;;13.70;95.30;;;;;;5005700;28;20340;-54
2021/05/19 06:33:48;;;;;;;;;;;13.30;95.50;;;;;;5024964;28;20122;-58
2021/05/19 06:36:13;;;;;;;23.98;14.05;;;13.10;96.80;;;;;;5026743;28;19951;-60
2021/05/19 06:38:39;;;;;;;;;;;12.90;97.20;;;;;;5026721;28;20737;-58
2021/05/19 06:41:04;;;;;;;21.63;13.15;;;12.60;97.00;;;;;;5026615;28;19921;-61
2021/05/19 06:43:30;;;;;;;;;;;12.70;98.30;;;;;;5041333;28;20044;-58
2021/05/19 06:45:56;;;;;;;24.10;13.90;;;12.70;97.90;;;;;;5068699;28;19931;-59
2021/05/19 06:48:21;;;;;;;;;;;12.80;97.70;;;;;;5069714;28;20072;-57
2021/05/19 06:50:47;;;;;;;24.00;14.52;;;12.50;98.40;;;;;;5068791;28;19970;-57
2021/05/19 06:53:12;;;;;;;;;;;12.00;99.10;;;;;;5069761;28;20040;-55
2021/05/19 06:55:39;;;;;;;21.95;13.63;;;12.10;99.80;;;;;;5068740;28;20390;-55
2021/05/19 06:58:05;;;;;;;27.38;14.15;;;12.30;99.90;;;;;;5058587;28;20954;-58
2021/05/19 07:00:31;;;;;;;23.88;12.73;;;12.30;99.90;;;;;;5048603;28;20045;-59
2021/05/19 07:02:56;;;;;;;;;;;12.40;99.70;;;;;;5049445;28;20052;-57
2021/05/19 07:05:22;;;;;;;24.58;13.60;;;12.20;99.90;;;;;;5048846;28;19917;-58
2021/05/19 07:07:48;;;;;;;;;;;12.30;99.90;;;;;;5049164;28;20033;-59
2021/05/19 07:10:16;;;;;;;22.13;13.52;;;12.30;99.90;;;;;;5049537;28;19928;-60
2021/05/19 07:12:42;;;;;;;24.73;13.13;;;12.30;99.90;;;;;;5048904;28;20041;-58
2021/05/19 07:15:16;;;;;;;;;;;12.30;99.60;;;;;;5042548;28;20052;-55
2021/05/19 07:17:42;;;;;;;23.80;13.10;;;12.30;99.70;;;;;;5049390;28;19920;-55
2021/05/19 07:20:10;;;;;;;24.85;14.27;;;11.90;99.80;;;;;;5048895;28;20084;-57
2021/05/19 07:22:36;;;;;;;28.08;15.07;;;11.80;99.90;;;;;;5048857;28;20055;-58
2021/05/19 07:25:02;;;;;;;;;;;11.50;99.90;;;;;;5049164;28;20119;-58
2021/05/19 07:27:28;;;;;;;27.67;17.50;;;11.40;99.90;;;;;;5049426;28;19920;-57
2021/05/19 07:29:54;;;;;;;;;;;11.40;99.90;;;;;;5052947;28;20404;-58
2021/05/19 07:32:19;;;;;;;24.23;15.18;;;11.50;99.90;;;;;;5052002;28;19970;-58
2021/05/19 07:34:44;;;;;;;;;;;11.60;99.90;;;;;;5053404;28;20409;-54
2021/05/19 07:37:10;;;;;;;27.38;16.75;;;11.60;99.90;;;;;;5052805;28;20292;-53
2021/05/19 07:39:36;;;;;;;;;;;11.70;99.90;;;;;;5052695;28;20413;-56
2021/05/19 07:42:02;;;;;;;27.33;17.23;;;11.80;99.90;;;;;;5052066;28;19972;-53
2021/05/19 07:44:27;;;;;;;;;;;11.90;99.90;;;;;;5050475;28;20072;-59
2021/05/19 07:46:53;;;;;;;24.50;16.40;;;11.90;99.90;;;;;;5036614;28;19960;-56
2021/05/19 07:49:18;;;;;;;;;;;12.00;99.90;;;;;;5043164;28;20067;-56
2021/05/19 07:51:44;;;;;;;25.77;16.48;;;12.00;99.90;;;;;;5052711;28;20393;-58
2021/05/19 07:54:13;;;;;;;;;;;12.00;99.90;;;;;;5052917;28;20106;-57
2021/05/19 07:57:03;;;;;;;25.92;16.05;;;12.10;99.90;;;;;;5051606;28;19916;-57
2021/05/19 07:59:28;;;;;;;24.92;15.75;;;12.30;99.90;;;;;;5052373;28;20080;-59
2021/05/19 08:02:02;;;;;;;32.95;17.15;;;12.40;99.90;;;;;;5051871;28;20044;-56
2021/05/19 08:04:29;;;;;;;26.58;15.85;;;12.60;99.60;;;;;;5051938;28;20123;-53
2021/05/19 08:06:55;;;;;;;21.05;14.52;;;12.50;99.90;;;;;;5052090;28;20049;-56
2021/05/19 08:09:20;;;;;;;;;;;12.40;99.90;;;;;;5052733;28;20049;-56
2021/05/19 08:11:46;;;;;;;21.15;14.35;;;12.30;99.80;;;;;;5051993;28;19924;-59
2021/05/19 08:14:11;;;;;;;;;;;12.10;99.90;;;;;;5052195;28;20049;-58
2021/05/19 08:16:37;;;;;;;16.52;11.10;;;11.80;99.90;;;;;;5051987;28;20424;-57
2021/05/19 08:19:03;;;;;;;;;;;11.70;99.90;;;;;;5052743;28;20483;-58
2021/05/19 08:21:28;;;;;;;18.20;11.93;;;11.50;99.90;;;;;;5052106;28;20012;-55
2021/05/19 08:23:54;;;;;;;;;;;11.40;99.90;;;;;;5051832;28;20067;-58
2021/05/19 08:26:20;;;;;;;14.40;10.07;;;11.50;99.90;;;;;;5051763;28;19932;-56
2021/05/19 08:28:47;;;;;;;;;;;11.60;99.90;;;;;;5052959;28;20465;-58
2021/05/19 08:31:13;;;;;;;15.65;10.88;;;11.30;99.90;;;;;;5050894;28;19924;-56
2021/05/19 08:33:40;;;;;;;16.63;10.48;;;11.30;99.90;;;;;;5052041;28;20065;-55
2021/05/19 08:36:06;;;;;;;15.13;10.18;;;11.30;99.90;;;;;;5047078;28;20048;-58
2021/05/19 08:38:35;;;;;;;;;;;11.20;99.90;;;;;;5050848;28;20492;-57
2021/05/19 08:41:04;;;;;;;16.65;10.85;;;11.20;99.90;;;;;;5051377;28;20355;-58
2021/05/19 08:43:30;;;;;;;12.93;9.63;;;11.10;99.90;;;;;;5057529;28;20495;-58
2021/05/19 08:45:55;;;;;;;;;;;11.70;99.90;;;;;;5070469;28;20530;-57
2021/05/19 08:48:23;;;;;;;16.42;10.77;;;11.80;99.90;;;;;;5070791;28;19924;-55
2021/05/19 08:50:49;;;;;;;14.95;10.10;;;12.00;99.90;;;;;;5050730;28;20786;-58
2021/05/19 08:53:15;;;;;;;;;;;11.90;99.70;;;;;;5044112;28;20170;-57
2021/05/19 08:55:40;;;;;;;15.63;10.98;;;11.90;99.90;;;;;;5042692;28;19927;-56
2021/05/19 08:58:06;;;;;;;;;;;12.40;99.00;;;;;;5048879;28;20397;-57
2021/05/19 09:00:33;;;;;;;17.17;11.00;;;12.80;98.70;;;;;;5044701;28;20019;-56
2021/05/19 09:03:13;;;;;;;16.30;11.75;;;13.20;98.40;;;;;;5044278;28;20045;-56
2021/05/19 09:05:44;;;;;;;14.55;10.55;;;13.50;95.60;;;;;;5047742;23;20131;-70
2021/05/19 09:08:12;;;;;;;13.18;9.73;;;13.30;95.00;;;;;;5030990;28;20045;-69
2021/05/19 09:10:40;;;;;;;16.15;10.27;;;13.20;97.20;;;;;;5034023;28;20040;-70
2021/05/19 09:13:07;;;;;;;17.90;10.40;;;13.00;97.10;;;;;;5034676;28;20122;-71
2021/05/19 09:15:50;;;;;;;14.30;9.82;;;12.90;97.60;;;;;;5034513;28;20037;-70
2021/05/19 09:18:15;;;;;;;15.52;8.98;;;13.00;97.10;;;;;;5033882;28;20075;-70
2021/05/19 09:20:41;;;;;;;;;;;12.90;96.70;;;;;;5052223;28;20080;-70
2021/05/19 09:23:14;;;;;;;15.98;11.02;;;12.60;97.30;;;;;;5050643;28;19917;-70
2021/05/19 09:25:40;;;;;;;15.07;10.32;;;12.60;97.90;;;;;;5028808;28;20398;-70
2021/05/19 09:28:07;;;;;;;;;;;12.40;98.60;;;;;;5027858;28;20041;-70
2021/05/19 09:30:44;;;;;;;25.40;16.25;;;12.20;99.00;;;;;;5025082;28;19927;-70
2021/05/19 09:33:21;;;;;;;17.98;12.05;;;12.10;98.20;;;;;;5032036;28;20036;-70
2021/05/19 09:36:16;;;;;;;23.48;14.90;;;12.10;98.80;;;;;;5028426;28;20065;-70
2021/05/19 09:38:43;;;;;;;25.50;14.05;;;12.20;99.60;;;;;;5025011;28;20049;-69
2021/05/19 09:41:36;;;;;;;21.90;13.20;;;12.30;99.00;;;;;;5025397;28;20033;-70
2021/05/19 09:44:05;;;;;;;31.10;17.13;;;12.60;99.90;;;;;;5028797;28;20048;-70
2021/05/19 09:49:11;;;;;;;;;;;12.30;99.10;;;;;;5044640;28;20467;-69
2021/05/19 09:51:37;;;;;;;23.98;14.63;;;12.10;98.50;;;;;;5020435;28;19921;-70
2021/05/19 09:54:02;;;;;;;;;;;12.00;99.20;;;;;;5036341;28;20043;-68
2021/05/19 09:56:28;;;;;;;27.60;15.10;;;12.00;99.40;;;;;;5048890;28;19975;-70
2021/05/19 09:58:54;;;;;;;;;;;11.90;99.20;;;;;;5036311;28;20508;-70
2021/05/19 10:01:25;;;;;;;24.23;15.10;;;12.10;99.90;;;;;;5032545;28;19917;-71
2021/05/19 10:03:55;;;;;;;25.58;14.43;;;12.50;99.10;;;;;;5026451;28;20119;-73
2021/05/19 10:06:26;;;;;;;26.67;16.20;;;12.90;98.90;;;;;;5025347;28;20067;-71
2021/05/19 10:08:52;;;;;;;26.25;15.32;;;13.10;98.00;;;;;;5030278;28;20485;-71
2021/05/19 10:11:18;;;;;;;;;;;13.00;96.80;;;;;;5034502;28;20047;-70
2021/05/19 10:13:44;;;;;;;18.00;11.82;;;13.30;96.90;;;;;;5033745;28;19920;-69
2021/05/19 10:16:13;;;;;;;;;;;13.50;95.80;;;;;;5032907;28;20064;-70
2021/05/19 10:18:53;;;;;;;18.50;11.57;;;13.80;95.80;;;;;;5034051;28;19979;-69
2021/05/19 10:21:21;;;;;;;18.67;11.10;;;13.80;96.00;;;;;;5033773;28;20037;-69
2021/05/19 10:24:10;;;;;;;15.80;9.60;;;13.60;95.60;;;;;;5035051;28;20128;-69
2021/05/19 10:27:15;;;;;;;18.40;11.18;;;13.40;94.80;;;;;;5043447;28;20037;-69
2021/05/19 10:29:49;;;;;;;17.23;11.63;;;13.00;96.50;;;;;;5035099;28;20072;-70
2021/05/19 10:32:33;;;;;;;23.13;12.63;;;12.80;96.80;;;;;;5033051;28;20044;-71
2021/05/19 10:35:03;;;;;;;18.67;12.45;;;12.80;96.70;;;;;;5033389;28;20033;-71
2021/05/19 10:37:35;;;;;;;20.17;12.35;;;13.30;97.20;;;;;;5033664;28;20056;-71
2021/05/19 10:40:07;;;;;;;18.55;11.18;;;13.60;98.30;;;;;;5031551;28;20045;-71
2021/05/19 10:42:42;;;;;;;20.33;10.20;;;13.70;95.90;;;;;;5031239;28;20118;-70
2021/05/19 10:45:13;;;;;;;16.73;10.00;;;13.80;95.70;;;;;;5033833;28;20040;-69
2021/05/19 10:47:44;;;;;;;16.23;9.52;;;14.00;94.40;;;;;;5032105;28;20044;-70
2021/05/19 10:50:35;;;;;;;17.83;10.25;;;14.30;94.00;;;;;;5033477;28;20450;-68
2021/05/19 10:59:00;;;;;;;10.30;7.28;;;13.90;95.10;;;;;;5045193;28;20040;-71
2021/05/19 11:01:38;;;;;;;14.98;8.77;;;13.90;94.30;;;;;;5032560;28;20040;-70
2021/05/19 11:04:25;;;;;;;12.93;7.32;;;13.60;93.60;;;;;;5031793;28;20041;-72
2021/05/19 11:06:57;;;;;;;15.98;8.43;;;13.50;94.00;;;;;;5033162;28;20478;-71
2021/05/19 11:09:28;;;;;;;13.18;7.65;;;13.50;95.00;;;;;;5033059;28;20510;-71
2021/05/19 11:12:26;;;;;;;10.77;7.45;;;13.70;94.10;;;;;;5033011;28;20087;-70
2021/05/19 11:15:00;;;;;;;12.23;7.20;;;13.80;95.00;;;;;;5032621;28;20041;-69
2021/05/19 11:17:33;;;;;;;8.63;6.47;;;13.90;94.40;;;;;;5032035;28;20052;-71
2021/05/19 11:20:04;;;;;;;12.82;6.35;;;13.60;92.70;;;;;;5033345;28;20049;-69
2021/05/19 11:22:30;;;;;;;11.18;5.88;;;13.50;92.80;;;;;;5044882;28;20116;-69
2021/05/19 11:24:59;;;;;;;;;;;13.60;93.80;;;;;;5032220;28;20124;-70
2021/05/19 11:27:33;;;;;;;7.63;3.75;;;13.70;93.00;;;;;;5029976;28;19948;-69
2021/05/19 11:30:00;;;;;;;6.90;3.35;;;14.10;93.00;;;;;;5032152;28;20056;-70
2021/05/19 11:32:30;;;;;;;9.90;3.53;;;14.50;89.80;;;;;;5042521;28;20045;-70
2021/05/19 11:35:16;;;;;;;4.53;3.30;;;14.50;90.90;;;;;;5032712;28;20420;-69
2021/05/19 11:38:05;;;;;;;8.55;3.13;;;14.40;87.00;;;;;;5032446;28;20103;-69
2021/05/19 11:40:50;;;;;;;3.60;2.55;;;14.20;89.30;;;;;;5033043;28;20048;-71
2021/05/19 11:43:19;;;;;;;7.55;2.75;;;14.30;87.70;;;;;;5032404;28;20069;-69
2021/05/19 11:45:48;;;;;;;4.22;2.35;;;14.20;87.90;;;;;;5031819;28;20044;-71
2021/05/19 11:48:24;;;;;;;6.07;2.75;;;14.30;88.30;;;;;;5050715;28;20045;-70
2021/05/19 11:50:50;;;;;;;4.38;1.77;;;14.20;89.10;;;;;;5032233;28;20068;-71
2021/05/19 11:53:17;;;;;;;2.63;1.73;;;14.10;85.20;;;;;;5032572;28;20048;-71
2021/05/19 11:55:46;;;;;;;4.38;1.77;;;14.30;90.00;;;;;;5032531;28;20076;-70
2021/05/19 11:58:23;;;;;;;5.53;1.40;;;14.60;90.10;;;;;;5037363;28;20076;-70
2021/05/19 12:01:01;;;;;;;2.50;1.20;;;15.00;86.40;;;;;;5033254;28;20044;-71
2021/05/19 12:03:31;;;;;;;3.97;1.30;;;15.10;83.60;;;;;;5032548;28;20059;-71
2021/05/19 12:06:09;;;;;;;6.07;1.48;;;15.20;74.70;;;;;;5032563;28;20044;-71
2021/05/19 12:08:44;;;;;;;2.80;1.63;;;15.30;77.20;;;;;;5035398;28;20045;-72
2021/05/19 12:11:20;;;;;;;6.15;1.30;;;15.50;77.50;;;;;;5033019;28;20056;-70
2021/05/19 12:13:55;;;;;;;5.13;1.30;;;15.60;83.50;;;;;;5033981;28;20513;-71
2021/05/19 12:16:33;;;;;;;8.13;1.52;;;15.60;81.40;;;;;;5035827;28;20110;-71
2021/05/19 12:19:03;;;;;;;2.08;0.85;;;15.40;77.20;;;;;;5035777;28;20075;-72
2021/05/19 12:21:29;;;;;;;4.63;0.88;;;15.30;74.30;;;;;;5036256;28;20098;-71
2021/05/19 12:23:56;;;;;;;4.85;1.10;;;15.30;80.00;;;;;;5035631;28;20047;-71
2021/05/19 12:26:24;;;;;;;;;;;15.30;77.60;;;;;;5036208;28;20124;-71
2021/05/19 12:28:50;;;;;;;11.52;7.15;;;15.20;72.90;;;;;;5035926;28;20019;-70
2021/05/19 12:31:30;;;;;;;;;;;15.20;75.20;;;;;;5035336;28;20132;-72
2021/05/19 12:33:56;;;;;;;8.13;1.30;;;15.30;72.80;;;;;;5035218;28;19916;-70
2021/05/19 12:36:29;;;;;;;3.50;0.60;;;15.30;70.50;;;;;;5036187;28;20048;-71
2021/05/19 12:39:01;;;;;;;6.22;0.93;;;15.40;71.80;;;;;;5035388;28;20041;-71
2021/05/19 12:41:44;;;;;;;7.50;1.88;;;15.60;76.70;;;;;;5053302;28;20047;-71
2021/05/19 12:44:18;;;;;;;5.38;2.65;;;15.40;76.60;;;;;;5032921;28;20136;-70
2021/05/19 12:47:23;;;;;;;7.30;1.55;;;15.20;76.00;;;;;;5035046;28;20116;-71
2021/05/19 12:49:57;;;;;;;3.58;1.08;;;14.80;77.80;;;;;;5023534;28;20394;-72
2021/05/19 12:52:23;;;;;;;5.10;1.08;;;14.80;78.80;;;;;;5035483;28;20123;-71
2021/05/19 12:54:50;;;;;;;;;;;14.90;79.40;;;;;;5035830;28;20174;-71
2021/05/19 12:57:18;;;;;;;3.17;1.23;;;14.80;81.80;;;;;;5041247;28;19916;-70
2021/05/19 12:59:50;;;;;;;3.75;1.55;;;14.70;81.50;;;;;;5035798;28;20052;-70
2021/05/19 13:02:18;;;;;;;3.13;0.90;;;14.90;83.40;;;;;;5035077;28;20099;-70
2021/05/19 13:04:52;;;;;;;2.42;1.17;;;15.20;84.90;;;;;;5035415;28;20445;-72
2021/05/19 13:07:20;;;;;;;1.38;0.98;;;15.50;82.90;;;;;;4152934;28;10000351;-70
2021/05/19 13:09:50;;;;;;;5.88;1.38;;;15.40;77.10;;;;;;5035273;28;20041;-70
2021/05/19 13:12:29;;;;;;;3.45;1.05;;;15.40;82.40;;;;;;5034712;28;20464;-70
2021/05/19 13:14:57;;;;;;;5.13;1.35;;;15.60;78.20;;;;;;5035427;28;20044;-72
2021/05/19 13:17:46;;;;;;;4.55;1.02;;;15.70;79.00;;;;;;5034384;28;20048;-71